createdAt,value
2023-03-29T00:02:52.904Z,27.46
2023-03-29T00:06:53.828Z,26.52
2023-03-29T00:10:53.950Z,26.44
2023-03-29T00:14:54.104Z,26.41
2023-03-29T00:18:54.634Z,26.38
2023-03-29T00:22:54.687Z,26.37
2023-03-29T00:26:54.709Z,26.36
2023-03-29T00:30:54.870Z,26.37
2023-03-29T00:34:54.999Z,26.35
2023-03-29T00:38:55.155Z,26.34
2023-03-29T00:42:55.343Z,26.35
2023-03-29T00:46:55.538Z,26.33
2023-03-29T00:50:55.755Z,26.34
2023-03-29T00:54:55.924Z,26.34
2023-03-29T00:58:56.122Z,26.32
2023-03-29T01:02:56.422Z,26.31
2023-03-29T01:10:55.680Z,26.31
2023-03-29T01:18:56.084Z,26.30
2023-03-29T02:58:57.853Z,26.19
2023-03-29T03:06:57.750Z,26.20
2023-03-29T03:14:57.708Z,26.19
2023-03-29T03:22:57.587Z,26.20
2023-03-29T03:34:57.665Z,26.21
2023-03-29T03:42:57.586Z,26.20
2023-03-29T03:50:57.506Z,26.18
2023-03-29T03:58:57.601Z,26.19
2023-03-29T04:06:57.527Z,26.18
2023-03-29T04:14:57.454Z,26.17
2023-03-29T04:26:57.481Z,26.20
2023-03-29T04:34:57.427Z,26.15
2023-03-29T04:42:57.344Z,26.15
2023-03-29T04:50:57.282Z,26.17
2023-03-29T04:58:57.508Z,26.14
2023-03-29T05:06:57.459Z,26.17
2023-03-29T05:10:58.402Z,26.16
2023-03-29T05:18:57.328Z,26.15
2023-03-29T05:26:57.433Z,26.17
2023-03-29T05:38:57.680Z,26.65
2023-03-29T05:46:57.671Z,27.48
2023-03-29T05:50:58.750Z,28.08
2023-03-29T05:54:58.557Z,28.39
2023-03-29T06:03:03.719Z,28.46
2023-03-29T06:10:57.920Z,28.22
2023-03-29T06:18:58.665Z,28.09
2023-03-29T13:03:20.464Z,33.15
2023-03-29T13:07:21.378Z,30.57
2023-03-29T13:11:21.241Z,30.81
2023-03-29T13:15:21.822Z,31.60
2023-03-29T13:19:21.309Z,32.64
2023-03-29T13:23:21.730Z,33.50
2023-03-29T17:51:24.505Z,30.81
2023-03-29T17:55:25.674Z,30.82
2023-03-29T17:59:25.842Z,30.78
2023-03-29T18:03:26.335Z,30.77
2023-03-29T18:07:26.284Z,30.77
2023-03-29T18:11:26.334Z,30.74
2023-03-29T18:15:26.331Z,30.72
2023-03-29T18:19:26.463Z,30.71
2023-03-29T18:23:26.601Z,30.70
2023-03-29T18:27:26.766Z,30.66
2023-03-29T18:31:27.332Z,30.66
2023-03-29T18:35:29.845Z,30.63
2023-03-29T18:39:27.360Z,30.65
2023-03-29T18:43:27.344Z,30.60
2023-03-29T18:47:27.416Z,30.62
2023-03-29T18:51:27.305Z,30.60
2023-03-29T18:55:26.890Z,30.60
2023-03-29T18:59:26.885Z,30.58
2023-03-29T19:03:26.921Z,30.56
2023-03-29T19:07:27.331Z,30.54
2023-03-29T19:11:28.932Z,30.54
2023-03-29T19:15:27.402Z,30.52
2023-03-29T19:19:27.329Z,30.51
2023-03-29T19:23:27.358Z,30.49
2023-03-29T19:27:27.341Z,30.50
2023-03-29T19:31:27.389Z,30.47
2023-03-29T19:35:26.945Z,30.46
2023-03-29T19:39:26.886Z,30.45
2023-03-29T19:43:27.339Z,30.46
2023-03-29T19:47:27.408Z,30.43
2023-03-29T19:51:27.440Z,30.43
2023-03-29T19:55:27.628Z,30.43
2023-03-29T19:59:27.824Z,30.40
2023-03-29T20:03:28.054Z,30.40
2023-03-29T20:07:28.203Z,30.37
2023-03-29T20:11:28.390Z,30.36
2023-03-29T20:15:28.583Z,30.34
2023-03-29T20:19:28.908Z,30.33
2023-03-29T20:23:29.389Z,30.35
2023-03-29T20:27:29.160Z,30.35
2023-03-29T20:31:29.418Z,30.32
2023-03-29T20:35:29.592Z,30.33
2023-03-29T20:39:29.741Z,30.30
2023-03-29T20:43:29.925Z,30.30
2023-03-29T20:47:30.172Z,30.29
2023-03-29T20:51:30.433Z,30.29
2023-03-29T20:55:30.521Z,30.28
2023-03-29T20:59:30.722Z,30.27
2023-03-29T21:03:31.019Z,30.25
2023-03-29T21:07:31.146Z,30.25
2023-03-29T21:11:31.332Z,30.26
2023-03-29T21:15:31.561Z,30.25
2023-03-29T21:19:31.720Z,30.21
2023-03-29T21:23:31.938Z,30.22
2023-03-29T21:27:32.395Z,30.21
2023-03-29T21:31:32.437Z,30.19
2023-03-29T22:27:34.468Z,30.09
2023-03-29T22:31:35.315Z,30.09
2023-03-29T22:35:35.545Z,30.05
2023-03-29T22:39:35.700Z,30.07
2023-03-29T22:43:35.940Z,30.06
2023-03-29T22:47:36.170Z,30.05
2023-03-29T22:51:36.332Z,30.06
2023-03-29T22:55:36.501Z,30.05
2023-03-29T22:59:36.751Z,30.03
2023-03-29T23:03:37.000Z,30.03
